Terminal Aerodrome Forecast
Issued by NWS

Home | Current Version | Previous Version | Text Only | Print | Product List | Glossary On
Versions: 1 2 3 4 5 6 7 8 9 10 11 12 13 14 15 16 17 18 19 20
902
FTUS43 KILX 202327 AAB
TAFBMI
TAF AMD
KBMI 202327Z 2023/2124 14006KT 3/4SM -DZ BR OVC003
     FM210800 19010KT 3SM BR OVC010
     FM211300 18010KT P6SM BKN025
     FM211600 18012G21KT P6SM BKN060=

USA.gov is the U.S. government's official web portal to all federal, state and local government web resources and services.